sensor_id;sensor_type;location;lat;lon;timestamp;P1;durP1;ratioP1;P2;durP2;ratioP2
30185;SDS011;31152;49.190;8.122;2022-09-12T00:01:10;6.05;;;4.95;;
30185;SDS011;31152;49.190;8.122;2022-09-12T00:03:54;10.68;;;5.25;;
30185;SDS011;31152;49.190;8.122;2022-09-12T00:06:25;6.78;;;4.97;;
30185;SDS011;31152;49.190;8.122;2022-09-12T00:08:55;6.72;;;5.07;;
30185;SDS011;31152;49.190;8.122;2022-09-12T00:11:23;10.02;;;4.90;;
30185;SDS011;31152;49.190;8.122;2022-09-12T00:13:57;6.82;;;5.30;;
30185;SDS011;31152;49.190;8.122;2022-09-12T00:16:26;9.57;;;5.22;;
30185;SDS011;31152;49.190;8.122;2022-09-12T00:18:54;8.40;;;5.30;;
30185;SDS011;31152;49.190;8.122;2022-09-12T00:21:21;7.95;;;5.43;;
30185;SDS011;31152;49.190;8.122;2022-09-12T00:23:49;7.90;;;5.53;;
30185;SDS011;31152;49.190;8.122;2022-09-12T00:26:16;8.77;;;5.53;;
30185;SDS011;31152;49.190;8.122;2022-09-12T00:28:44;9.50;;;5.13;;
30185;SDS011;31152;49.190;8.122;2022-09-12T00:31:13;11.82;;;5.45;;
30185;SDS011;31152;49.190;8.122;2022-09-12T00:33:46;8.55;;;5.13;;
30185;SDS011;31152;49.190;8.122;2022-09-12T00:36:19;6.70;;;5.25;;
30185;SDS011;31152;49.190;8.122;2022-09-12T00:38:49;7.70;;;5.78;;
30185;SDS011;31152;49.190;8.122;2022-09-12T00:41:24;6.78;;;5.18;;
30185;SDS011;31152;49.190;8.122;2022-09-12T00:44:00;9.65;;;5.50;;
30185;SDS011;31152;49.190;8.122;2022-09-12T00:46:35;6.95;;;4.95;;
30185;SDS011;31152;49.190;8.122;2022-09-12T00:49:15;7.88;;;5.35;;
30185;SDS011;31152;49.190;8.122;2022-09-12T00:51:57;9.70;;;5.28;;
30185;SDS011;31152;49.190;8.122;2022-09-12T00:57:29;9.15;;;5.50;;
30185;SDS011;31152;49.190;8.122;2022-09-12T01:00:10;7.38;;;5.50;;
30185;SDS011;31152;49.190;8.122;2022-09-12T01:02:44;10.88;;;5.80;;
30185;SDS011;31152;49.190;8.122;2022-09-12T01:05:16;8.35;;;5.75;;
30185;SDS011;31152;49.190;8.122;2022-09-12T01:07:43;7.38;;;5.70;;
30185;SDS011;31152;49.190;8.122;2022-09-12T01:10:13;8.60;;;5.57;;
30185;SDS011;31152;49.190;8.122;2022-09-12T01:12:40;10.82;;;5.57;;
30185;SDS011;31152;49.190;8.122;2022-09-12T01:15:08;17.10;;;6.35;;
30185;SDS011;31152;49.190;8.122;2022-09-12T01:17:43;7.05;;;5.75;;
30185;SDS011;31152;49.190;8.122;2022-09-12T01:23:56;8.48;;;5.65;;
30185;SDS011;31152;49.190;8.122;2022-09-12T01:27:32;9.63;;;6.15;;
30185;SDS011;31152;49.190;8.122;2022-09-12T01:32:28;8.70;;;5.72;;
30185;SDS011;31152;49.190;8.122;2022-09-12T01:38:09;10.70;;;6.05;;
30185;SDS011;31152;49.190;8.122;2022-09-12T01:41:04;7.72;;;6.20;;
30185;SDS011;31152;49.190;8.122;2022-09-12T01:47:11;10.52;;;6.07;;
30185;SDS011;31152;49.190;8.122;2022-09-12T01:49:21;10.80;;;6.25;;
30185;SDS011;31152;49.190;8.122;2022-09-12T01:52:15;8.80;;;6.47;;
30185;SDS011;31152;49.190;8.122;2022-09-12T01:57:58;7.95;;;6.38;;
30185;SDS011;31152;49.190;8.122;2022-09-12T02:00:21;7.85;;;6.15;;
30185;SDS011;31152;49.190;8.122;2022-09-12T02:02:57;10.82;;;5.95;;
30185;SDS011;31152;49.190;8.122;2022-09-12T02:05:35;7.70;;;6.35;;
30185;SDS011;31152;49.190;8.122;2022-09-12T02:08:13;7.22;;;5.75;;
30185;SDS011;31152;49.190;8.122;2022-09-12T02:11:08;9.93;;;6.30;;
30185;SDS011;31152;49.190;8.122;2022-09-12T02:13:40;7.32;;;6.25;;
30185;SDS011;31152;49.190;8.122;2022-09-12T02:19:00;11.55;;;6.78;;
30185;SDS011;31152;49.190;8.122;2022-09-12T02:21:35;13.10;;;6.22;;
30185;SDS011;31152;49.190;8.122;2022-09-12T02:24:08;8.23;;;6.28;;
30185;SDS011;31152;49.190;8.122;2022-09-12T02:26:40;12.10;;;6.53;;
30185;SDS011;31152;49.190;8.122;2022-09-12T02:29:12;11.50;;;6.45;;
30185;SDS011;31152;49.190;8.122;2022-09-12T02:31:46;8.57;;;6.78;;
30185;SDS011;31152;49.190;8.122;2022-09-12T02:39:32;10.30;;;6.88;;
30185;SDS011;31152;49.190;8.122;2022-09-12T02:42:00;9.73;;;7.43;;
30185;SDS011;31152;49.190;8.122;2022-09-12T02:44:31;9.80;;;6.88;;
30185;SDS011;31152;49.190;8.122;2022-09-12T02:47:10;11.25;;;7.65;;
30185;SDS011;31152;49.190;8.122;2022-09-12T02:49:45;10.95;;;6.78;;
30185;SDS011;31152;49.190;8.122;2022-09-12T02:52:12;9.25;;;6.95;;
30185;SDS011;31152;49.190;8.122;2022-09-12T02:54:39;10.30;;;6.60;;
30185;SDS011;31152;49.190;8.122;2022-09-12T02:57:16;10.23;;;7.05;;
30185;SDS011;31152;49.190;8.122;2022-09-12T02:59:48;9.75;;;7.55;;
30185;SDS011;31152;49.190;8.122;2022-09-12T03:16:36;8.13;;;6.40;;
30185;SDS011;31152;49.190;8.122;2022-09-12T03:19:23;9.13;;;7.13;;
30185;SDS011;31152;49.190;8.122;2022-09-12T03:22:04;9.07;;;7.10;;
30185;SDS011;31152;49.190;8.122;2022-09-12T03:24:49;9.52;;;6.85;;
30185;SDS011;31152;49.190;8.122;2022-09-12T03:27:37;11.80;;;7.05;;
30185;SDS011;31152;49.190;8.122;2022-09-12T03:30:08;8.48;;;6.35;;
30185;SDS011;31152;49.190;8.122;2022-09-12T03:35:14;8.63;;;6.60;;
30185;SDS011;31152;49.190;8.122;2022-09-12T03:40:15;12.05;;;6.90;;
30185;SDS011;31152;49.190;8.122;2022-09-12T03:42:42;9.25;;;7.03;;
30185;SDS011;31152;49.190;8.122;2022-09-12T03:45:12;8.35;;;7.05;;
30185;SDS011;31152;49.190;8.122;2022-09-12T03:47:38;12.70;;;7.50;;
30185;SDS011;31152;49.190;8.122;2022-09-12T03:50:05;10.18;;;7.03;;
30185;SDS011;31152;49.190;8.122;2022-09-12T03:52:35;15.63;;;6.95;;
30185;SDS011;31152;49.190;8.122;2022-09-12T03:55:05;9.00;;;7.18;;
30185;SDS011;31152;49.190;8.122;2022-09-12T03:57:32;12.00;;;7.32;;
30185;SDS011;31152;49.190;8.122;2022-09-12T03:59:59;9.52;;;6.80;;
30185;SDS011;31152;49.190;8.122;2022-09-12T04:02:27;9.88;;;7.38;;
30185;SDS011;31152;49.190;8.122;2022-09-12T04:04:54;12.30;;;8.15;;
30185;SDS011;31152;49.190;8.122;2022-09-12T04:07:23;12.40;;;8.13;;
30185;SDS011;31152;49.190;8.122;2022-09-12T04:09:50;12.60;;;8.73;;
30185;SDS011;31152;49.190;8.122;2022-09-12T04:12:18;12.15;;;9.13;;
30185;SDS011;31152;49.190;8.122;2022-09-12T04:14:45;13.75;;;9.80;;
30185;SDS011;31152;49.190;8.122;2022-09-12T04:17:13;13.65;;;9.40;;
30185;SDS011;31152;49.190;8.122;2022-09-12T04:19:40;12.85;;;9.13;;
30185;SDS011;31152;49.190;8.122;2022-09-12T04:22:06;11.32;;;9.10;;
30185;SDS011;31152;49.190;8.122;2022-09-12T04:24:33;12.93;;;9.07;;
30185;SDS011;31152;49.190;8.122;2022-09-12T04:27:00;15.18;;;9.80;;
30185;SDS011;31152;49.190;8.122;2022-09-12T04:29:33;20.20;;;9.93;;
30185;SDS011;31152;49.190;8.122;2022-09-12T04:32:01;15.18;;;10.63;;
30185;SDS011;31152;49.190;8.122;2022-09-12T04:34:29;16.00;;;11.32;;
30185;SDS011;31152;49.190;8.122;2022-09-12T04:36:57;14.23;;;11.27;;
30185;SDS011;31152;49.190;8.122;2022-09-12T04:39:24;15.57;;;10.52;;
30185;SDS011;31152;49.190;8.122;2022-09-12T04:41:53;19.60;;;12.13;;
30185;SDS011;31152;49.190;8.122;2022-09-12T04:44:20;16.75;;;11.95;;
30185;SDS011;31152;49.190;8.122;2022-09-12T04:46:47;17.38;;;12.73;;
30185;SDS011;31152;49.190;8.122;2022-09-12T04:49:16;14.85;;;10.88;;
30185;SDS011;31152;49.190;8.122;2022-09-12T04:51:44;15.10;;;11.60;;
30185;SDS011;31152;49.190;8.122;2022-09-12T04:54:14;14.60;;;10.80;;
30185;SDS011;31152;49.190;8.122;2022-09-12T04:56:46;14.68;;;10.32;;
30185;SDS011;31152;49.190;8.122;2022-09-12T04:59:18;13.40;;;10.20;;
30185;SDS011;31152;49.190;8.122;2022-09-12T05:01:46;16.63;;;10.35;;
30185;SDS011;31152;49.190;8.122;2022-09-12T05:04:15;13.13;;;10.20;;
30185;SDS011;31152;49.190;8.122;2022-09-12T05:06:42;17.17;;;12.20;;
30185;SDS011;31152;49.190;8.122;2022-09-12T05:09:10;17.25;;;12.70;;
30185;SDS011;31152;49.190;8.122;2022-09-12T05:11:37;17.50;;;13.23;;
30185;SDS011;31152;49.190;8.122;2022-09-12T05:14:28;19.83;;;13.88;;
30185;SDS011;31152;49.190;8.122;2022-09-12T05:16:54;19.48;;;14.02;;
30185;SDS011;31152;49.190;8.122;2022-09-12T05:19:28;25.42;;;15.27;;
30185;SDS011;31152;49.190;8.122;2022-09-12T05:21:58;22.23;;;15.10;;
30185;SDS011;31152;49.190;8.122;2022-09-12T05:24:25;25.48;;;14.20;;
30185;SDS011;31152;49.190;8.122;2022-09-12T05:26:52;24.10;;;15.30;;
30185;SDS011;31152;49.190;8.122;2022-09-12T05:29:18;22.55;;;14.38;;
30185;SDS011;31152;49.190;8.122;2022-09-12T05:31:47;21.20;;;14.57;;
30185;SDS011;31152;49.190;8.122;2022-09-12T05:34:17;21.73;;;13.82;;
30185;SDS011;31152;49.190;8.122;2022-09-12T05:36:44;23.63;;;14.38;;
30185;SDS011;31152;49.190;8.122;2022-09-12T05:39:11;19.13;;;13.52;;
30185;SDS011;31152;49.190;8.122;2022-09-12T05:41:40;23.75;;;14.38;;
30185;SDS011;31152;49.190;8.122;2022-09-12T05:44:10;21.13;;;13.13;;
30185;SDS011;31152;49.190;8.122;2022-09-12T05:46:41;19.40;;;13.33;;
30185;SDS011;31152;49.190;8.122;2022-09-12T05:49:10;20.02;;;13.70;;
30185;SDS011;31152;49.190;8.122;2022-09-12T05:51:39;22.85;;;13.77;;
30185;SDS011;31152;49.190;8.122;2022-09-12T05:54:08;22.20;;;13.57;;
30185;SDS011;31152;49.190;8.122;2022-09-12T05:56:37;21.95;;;13.88;;
30185;SDS011;31152;49.190;8.122;2022-09-12T05:59:09;20.13;;;13.45;;
30185;SDS011;31152;49.190;8.122;2022-09-12T06:01:45;22.40;;;14.48;;
30185;SDS011;31152;49.190;8.122;2022-09-12T06:04:15;20.75;;;13.68;;
30185;SDS011;31152;49.190;8.122;2022-09-12T06:06:45;22.70;;;14.02;;
30185;SDS011;31152;49.190;8.122;2022-09-12T06:09:15;20.70;;;12.57;;
30185;SDS011;31152;49.190;8.122;2022-09-12T06:11:43;20.92;;;13.38;;
30185;SDS011;31152;49.190;8.122;2022-09-12T06:14:11;20.27;;;12.77;;
30185;SDS011;31152;49.190;8.122;2022-09-12T06:16:42;21.05;;;13.07;;
30185;SDS011;31152;49.190;8.122;2022-09-12T06:19:16;22.42;;;13.48;;
30185;SDS011;31152;49.190;8.122;2022-09-12T06:21:44;19.23;;;12.27;;
30185;SDS011;31152;49.190;8.122;2022-09-12T06:24:12;21.90;;;12.15;;
30185;SDS011;31152;49.190;8.122;2022-09-12T06:26:39;21.30;;;14.45;;
30185;SDS011;31152;49.190;8.122;2022-09-12T06:29:06;22.17;;;13.82;;
30185;SDS011;31152;49.190;8.122;2022-09-12T06:31:34;18.38;;;12.93;;
30185;SDS011;31152;49.190;8.122;2022-09-12T06:34:05;16.58;;;12.60;;
30185;SDS011;31152;49.190;8.122;2022-09-12T06:36:38;20.50;;;13.13;;
30185;SDS011;31152;49.190;8.122;2022-09-12T06:39:14;22.27;;;13.80;;
30185;SDS011;31152;49.190;8.122;2022-09-12T06:41:43;25.98;;;13.77;;
30185;SDS011;31152;49.190;8.122;2022-09-12T06:44:11;19.63;;;14.20;;
30185;SDS011;31152;49.190;8.122;2022-09-12T06:46:41;19.05;;;13.73;;
30185;SDS011;31152;49.190;8.122;2022-09-12T06:49:17;22.70;;;14.32;;
30185;SDS011;31152;49.190;8.122;2022-09-12T06:51:48;22.20;;;15.57;;
30185;SDS011;31152;49.190;8.122;2022-09-12T06:54:15;23.55;;;14.40;;
30185;SDS011;31152;49.190;8.122;2022-09-12T06:56:42;20.80;;;14.23;;
30185;SDS011;31152;49.190;8.122;2022-09-12T06:59:10;19.52;;;14.27;;
30185;SDS011;31152;49.190;8.122;2022-09-12T07:01:37;27.30;;;14.63;;
30185;SDS011;31152;49.190;8.122;2022-09-12T07:04:05;22.77;;;13.90;;
30185;SDS011;31152;49.190;8.122;2022-09-12T07:06:36;20.83;;;13.48;;
30185;SDS011;31152;49.190;8.122;2022-09-12T07:09:07;22.10;;;12.80;;
30185;SDS011;31152;49.190;8.122;2022-09-12T07:11:36;17.48;;;13.35;;
30185;SDS011;31152;49.190;8.122;2022-09-12T07:14:07;18.50;;;13.00;;
30185;SDS011;31152;49.190;8.122;2022-09-12T07:16:35;20.73;;;13.90;;
30185;SDS011;31152;49.190;8.122;2022-09-12T07:19:05;23.60;;;12.43;;
30185;SDS011;31152;49.190;8.122;2022-09-12T07:21:33;19.45;;;12.15;;
30185;SDS011;31152;49.190;8.122;2022-09-12T07:24:06;21.17;;;12.25;;
30185;SDS011;31152;49.190;8.122;2022-09-12T07:26:34;17.42;;;11.85;;
30185;SDS011;31152;49.190;8.122;2022-09-12T07:29:01;18.63;;;12.30;;
30185;SDS011;31152;49.190;8.122;2022-09-12T07:31:48;17.05;;;11.57;;
30185;SDS011;31152;49.190;8.122;2022-09-12T07:34:17;21.33;;;11.73;;
30185;SDS011;31152;49.190;8.122;2022-09-12T07:36:44;19.55;;;13.35;;
30185;SDS011;31152;49.190;8.122;2022-09-12T07:39:10;20.48;;;11.43;;
30185;SDS011;31152;49.190;8.122;2022-09-12T07:41:37;21.33;;;11.90;;
30185;SDS011;31152;49.190;8.122;2022-09-12T07:44:07;18.85;;;11.10;;
30185;SDS011;31152;49.190;8.122;2022-09-12T07:46:33;15.77;;;10.30;;
30185;SDS011;31152;49.190;8.122;2022-09-12T07:49:00;15.70;;;10.80;;
30185;SDS011;31152;49.190;8.122;2022-09-12T07:51:28;16.55;;;11.27;;
30185;SDS011;31152;49.190;8.122;2022-09-12T07:54:00;16.38;;;11.30;;
30185;SDS011;31152;49.190;8.122;2022-09-12T07:56:31;16.15;;;10.60;;
30185;SDS011;31152;49.190;8.122;2022-09-12T07:59:04;27.55;;;11.57;;
30185;SDS011;31152;49.190;8.122;2022-09-12T08:01:30;17.90;;;10.82;;
30185;SDS011;31152;49.190;8.122;2022-09-12T08:03:58;16.00;;;11.05;;
30185;SDS011;31152;49.190;8.122;2022-09-12T08:06:29;14.20;;;10.18;;
30185;SDS011;31152;49.190;8.122;2022-09-12T08:08:57;17.02;;;10.82;;
30185;SDS011;31152;49.190;8.122;2022-09-12T08:11:25;18.88;;;11.25;;
30185;SDS011;31152;49.190;8.122;2022-09-12T08:13:53;14.50;;;10.10;;
30185;SDS011;31152;49.190;8.122;2022-09-12T08:16:25;15.70;;;10.65;;
30185;SDS011;31152;49.190;8.122;2022-09-12T08:18:56;14.30;;;11.05;;
30185;SDS011;31152;49.190;8.122;2022-09-12T08:21:24;18.92;;;11.65;;
30185;SDS011;31152;49.190;8.122;2022-09-12T08:23:54;16.33;;;12.05;;
30185;SDS011;31152;49.190;8.122;2022-09-12T08:26:23;24.70;;;12.45;;
30185;SDS011;31152;49.190;8.122;2022-09-12T08:28:50;19.27;;;11.20;;
30185;SDS011;31152;49.190;8.122;2022-09-12T08:31:17;16.33;;;10.25;;
30185;SDS011;31152;49.190;8.122;2022-09-12T08:33:45;14.13;;;10.32;;
30185;SDS011;31152;49.190;8.122;2022-09-12T08:36:19;13.38;;;9.80;;
30185;SDS011;31152;49.190;8.122;2022-09-12T08:38:49;15.38;;;10.65;;
30185;SDS011;31152;49.190;8.122;2022-09-12T08:41:35;15.10;;;11.77;;
30185;SDS011;31152;49.190;8.122;2022-09-12T08:52:29;14.52;;;10.57;;
30185;SDS011;31152;49.190;8.122;2022-09-12T08:55:01;12.82;;;8.77;;
30185;SDS011;31152;49.190;8.122;2022-09-12T08:57:31;14.95;;;9.55;;
30185;SDS011;31152;49.190;8.122;2022-09-12T08:59:58;12.35;;;9.43;;
30185;SDS011;31152;49.190;8.122;2022-09-12T09:05:19;14.02;;;10.32;;
30185;SDS011;31152;49.190;8.122;2022-09-12T09:16:42;17.75;;;11.20;;
30185;SDS011;31152;49.190;8.122;2022-09-12T09:19:16;13.50;;;10.15;;
30185;SDS011;31152;49.190;8.122;2022-09-12T09:21:49;13.10;;;9.63;;
30185;SDS011;31152;49.190;8.122;2022-09-12T09:24:50;13.45;;;8.55;;
30185;SDS011;31152;49.190;8.122;2022-09-12T09:27:32;13.30;;;9.35;;
30185;SDS011;31152;49.190;8.122;2022-09-12T09:30:16;15.57;;;9.68;;
30185;SDS011;31152;49.190;8.122;2022-09-12T09:32:46;14.95;;;9.10;;
30185;SDS011;31152;49.190;8.122;2022-09-12T09:35:21;12.77;;;9.27;;
30185;SDS011;31152;49.190;8.122;2022-09-12T09:40:49;12.68;;;9.63;;
30185;SDS011;31152;49.190;8.122;2022-09-12T09:43:20;32.05;;;10.40;;
30185;SDS011;31152;49.190;8.122;2022-09-12T09:45:54;19.20;;;9.45;;
30185;SDS011;31152;49.190;8.122;2022-09-12T09:48:27;16.95;;;8.75;;
30185;SDS011;31152;49.190;8.122;2022-09-12T09:50:58;12.13;;;9.60;;
30185;SDS011;31152;49.190;8.122;2022-09-12T09:53:31;13.35;;;10.20;;
30185;SDS011;31152;49.190;8.122;2022-09-12T09:56:04;13.73;;;8.88;;
30185;SDS011;31152;49.190;8.122;2022-09-12T09:58:36;13.68;;;7.38;;
30185;SDS011;31152;49.190;8.122;2022-09-12T10:01:05;10.10;;;8.10;;
30185;SDS011;31152;49.190;8.122;2022-09-12T10:03:39;15.35;;;8.38;;
30185;SDS011;31152;49.190;8.122;2022-09-12T10:06:22;12.80;;;8.43;;
30185;SDS011;31152;49.190;8.122;2022-09-12T10:09:19;14.98;;;8.65;;
30185;SDS011;31152;49.190;8.122;2022-09-12T10:11:49;10.20;;;6.95;;
30185;SDS011;31152;49.190;8.122;2022-09-12T10:14:33;10.73;;;7.22;;
30185;SDS011;31152;49.190;8.122;2022-09-12T10:17:26;15.52;;;7.00;;
30185;SDS011;31152;49.190;8.122;2022-09-12T10:23:26;8.05;;;6.40;;
30185;SDS011;31152;49.190;8.122;2022-09-12T10:26:04;10.68;;;7.00;;
30185;SDS011;31152;49.190;8.122;2022-09-12T10:28:36;9.82;;;7.50;;
30185;SDS011;31152;49.190;8.122;2022-09-12T10:31:09;10.57;;;7.63;;
30185;SDS011;31152;49.190;8.122;2022-09-12T10:33:44;10.35;;;7.03;;
30185;SDS011;31152;49.190;8.122;2022-09-12T10:36:20;9.68;;;5.97;;
30185;SDS011;31152;49.190;8.122;2022-09-12T10:38:52;7.57;;;6.60;;
30185;SDS011;31152;49.190;8.122;2022-09-12T10:41:22;15.65;;;6.65;;
30185;SDS011;31152;49.190;8.122;2022-09-12T10:43:50;9.18;;;6.95;;
30185;SDS011;31152;49.190;8.122;2022-09-12T10:51:47;6.97;;;5.78;;
30185;SDS011;31152;49.190;8.122;2022-09-12T10:54:20;8.70;;;4.75;;
30185;SDS011;31152;49.190;8.122;2022-09-12T10:59:52;5.75;;;4.28;;
30185;SDS011;31152;49.190;8.122;2022-09-12T11:02:36;4.50;;;3.80;;
30185;SDS011;31152;49.190;8.122;2022-09-12T11:05:48;4.65;;;4.25;;
30185;SDS011;31152;49.190;8.122;2022-09-12T11:08:23;4.22;;;3.83;;
30185;SDS011;31152;49.190;8.122;2022-09-12T11:26:00;3.80;;;3.40;;
30185;SDS011;31152;49.190;8.122;2022-09-12T11:31:02;4.47;;;3.60;;
30185;SDS011;31152;49.190;8.122;2022-09-12T11:33:45;4.13;;;3.50;;
30185;SDS011;31152;49.190;8.122;2022-09-12T11:41:40;3.95;;;3.30;;
30185;SDS011;31152;49.190;8.122;2022-09-12T11:44:25;4.50;;;3.53;;
30185;SDS011;31152;49.190;8.122;2022-09-12T11:47:14;3.75;;;3.45;;
30185;SDS011;31152;49.190;8.122;2022-09-12T11:49:44;3.25;;;2.80;;
30185;SDS011;31152;49.190;8.122;2022-09-12T11:52:23;2.90;;;2.70;;
30185;SDS011;31152;49.190;8.122;2022-09-12T11:54:57;3.75;;;2.88;;
30185;SDS011;31152;49.190;8.122;2022-09-12T11:57:59;6.25;;;2.70;;
30185;SDS011;31152;49.190;8.122;2022-09-12T12:03:30;5.07;;;2.75;;
30185;SDS011;31152;49.190;8.122;2022-09-12T12:06:06;4.93;;;3.10;;
30185;SDS011;31152;49.190;8.122;2022-09-12T12:08:54;2.75;;;2.33;;
30185;SDS011;31152;49.190;8.122;2022-09-12T12:11:25;2.47;;;2.28;;
30185;SDS011;31152;49.190;8.122;2022-09-12T12:13:58;2.40;;;1.95;;
30185;SDS011;31152;49.190;8.122;2022-09-12T12:16:32;3.92;;;1.88;;
30185;SDS011;31152;49.190;8.122;2022-09-12T12:19:08;2.30;;;2.10;;
30185;SDS011;31152;49.190;8.122;2022-09-12T12:21:40;2.30;;;2.10;;
30185;SDS011;31152;49.190;8.122;2022-09-12T12:34:30;3.15;;;1.88;;
30185;SDS011;31152;49.190;8.122;2022-09-12T12:58:55;2.40;;;2.20;;
30185;SDS011;31152;49.190;8.122;2022-09-12T13:01:10;3.55;;;2.00;;
30185;SDS011;31152;49.190;8.122;2022-09-12T13:03:43;4.93;;;2.00;;
30185;SDS011;31152;49.190;8.122;2022-09-12T13:06:25;3.13;;;2.00;;
30185;SDS011;31152;49.190;8.122;2022-09-12T13:09:03;2.45;;;1.90;;
30185;SDS011;31152;49.190;8.122;2022-09-12T13:11:35;2.38;;;1.80;;
30185;SDS011;31152;49.190;8.122;2022-09-12T13:14:05;2.15;;;1.95;;
30185;SDS011;31152;49.190;8.122;2022-09-12T13:16:53;4.50;;;1.80;;
30185;SDS011;31152;49.190;8.122;2022-09-12T13:19:27;2.13;;;1.85;;
30185;SDS011;31152;49.190;8.122;2022-09-12T13:24:26;1.90;;;1.65;;
30185;SDS011;31152;49.190;8.122;2022-09-12T13:26:53;1.80;;;1.70;;
30185;SDS011;31152;49.190;8.122;2022-09-12T13:29:21;1.77;;;1.67;;
30185;SDS011;31152;49.190;8.122;2022-09-12T13:31:55;1.80;;;1.63;;
30185;SDS011;31152;49.190;8.122;2022-09-12T13:34:28;3.67;;;1.80;;
30185;SDS011;31152;49.190;8.122;2022-09-12T13:43:13;3.38;;;1.58;;
30185;SDS011;31152;49.190;8.122;2022-09-12T13:45:43;1.55;;;1.45;;
30185;SDS011;31152;49.190;8.122;2022-09-12T13:48:13;5.05;;;1.80;;
30185;SDS011;31152;49.190;8.122;2022-09-12T13:50:50;3.72;;;1.65;;
30185;SDS011;31152;49.190;8.122;2022-09-12T13:53:26;2.80;;;1.80;;
30185;SDS011;31152;49.190;8.122;2022-09-12T13:55:59;3.28;;;1.60;;
30185;SDS011;31152;49.190;8.122;2022-09-12T13:58:30;1.50;;;1.40;;
30185;SDS011;31152;49.190;8.122;2022-09-12T14:01:00;2.83;;;1.48;;
30185;SDS011;31152;49.190;8.122;2022-09-12T14:03:33;9.50;;;2.20;;
30185;SDS011;31152;49.190;8.122;2022-09-12T14:09:23;2.17;;;1.83;;
30185;SDS011;31152;49.190;8.122;2022-09-12T14:11:54;6.35;;;1.90;;
30185;SDS011;31152;49.190;8.122;2022-09-12T14:14:26;3.42;;;1.73;;
30185;SDS011;31152;49.190;8.122;2022-09-12T14:17:14;2.03;;;1.67;;
30185;SDS011;31152;49.190;8.122;2022-09-12T14:19:47;2.80;;;1.80;;
30185;SDS011;31152;49.190;8.122;2022-09-12T14:22:14;1.58;;;1.48;;
30185;SDS011;31152;49.190;8.122;2022-09-12T14:24:44;3.22;;;1.60;;
30185;SDS011;31152;49.190;8.122;2022-09-12T14:27:57;3.65;;;1.70;;
30185;SDS011;31152;49.190;8.122;2022-09-12T14:35:52;2.05;;;1.73;;
30185;SDS011;31152;49.190;8.122;2022-09-12T14:38:35;3.97;;;1.80;;
30185;SDS011;31152;49.190;8.122;2022-09-12T14:41:08;4.10;;;1.90;;
30185;SDS011;31152;49.190;8.122;2022-09-12T14:43:41;3.22;;;1.70;;
30185;SDS011;31152;49.190;8.122;2022-09-12T14:46:15;3.05;;;1.67;;
30185;SDS011;31152;49.190;8.122;2022-09-12T14:48:48;2.13;;;1.50;;
30185;SDS011;31152;49.190;8.122;2022-09-12T14:51:19;1.88;;;1.52;;
30185;SDS011;31152;49.190;8.122;2022-09-12T14:53:50;2.30;;;1.75;;
30185;SDS011;31152;49.190;8.122;2022-09-12T14:56:19;1.55;;;1.45;;
30185;SDS011;31152;49.190;8.122;2022-09-12T14:58:47;1.73;;;1.58;;
30185;SDS011;31152;49.190;8.122;2022-09-12T15:01:38;4.57;;;1.35;;
30185;SDS011;31152;49.190;8.122;2022-09-12T15:04:05;9.88;;;2.50;;
30185;SDS011;31152;49.190;8.122;2022-09-12T15:06:33;4.68;;;2.10;;
30185;SDS011;31152;49.190;8.122;2022-09-12T15:09:07;1.90;;;1.65;;
30185;SDS011;31152;49.190;8.122;2022-09-12T15:11:38;26.20;;;3.33;;
30185;SDS011;31152;49.190;8.122;2022-09-12T15:14:05;6.57;;;1.95;;
30185;SDS011;31152;49.190;8.122;2022-09-12T15:16:39;29.73;;;3.70;;
30185;SDS011;31152;49.190;8.122;2022-09-12T15:19:08;29.08;;;3.65;;
30185;SDS011;31152;49.190;8.122;2022-09-12T15:21:39;20.90;;;2.70;;
30185;SDS011;31152;49.190;8.122;2022-09-12T15:24:14;2.60;;;1.58;;
30185;SDS011;31152;49.190;8.122;2022-09-12T15:26:40;4.40;;;2.20;;
30185;SDS011;31152;49.190;8.122;2022-09-12T15:29:18;4.88;;;1.90;;
30185;SDS011;31152;49.190;8.122;2022-09-12T15:31:48;3.05;;;1.92;;
30185;SDS011;31152;49.190;8.122;2022-09-12T15:34:16;2.63;;;1.70;;
30185;SDS011;31152;49.190;8.122;2022-09-12T15:36:44;6.57;;;1.80;;
30185;SDS011;31152;49.190;8.122;2022-09-12T15:39:11;6.05;;;2.10;;
30185;SDS011;31152;49.190;8.122;2022-09-12T15:41:41;10.90;;;3.25;;
30185;SDS011;31152;49.190;8.122;2022-09-12T15:44:29;9.50;;;2.95;;
30185;SDS011;31152;49.190;8.122;2022-09-12T15:46:59;15.30;;;2.65;;
30185;SDS011;31152;49.190;8.122;2022-09-12T15:49:30;26.80;;;3.22;;
30185;SDS011;31152;49.190;8.122;2022-09-12T15:51:57;23.15;;;3.78;;
30185;SDS011;31152;49.190;8.122;2022-09-12T15:54:24;4.38;;;1.67;;
30185;SDS011;31152;49.190;8.122;2022-09-12T15:56:51;15.18;;;3.00;;
30185;SDS011;31152;49.190;8.122;2022-09-12T15:59:18;10.10;;;2.85;;
30185;SDS011;31152;49.190;8.122;2022-09-12T16:01:45;17.73;;;3.83;;
30185;SDS011;31152;49.190;8.122;2022-09-12T16:04:22;5.65;;;2.00;;
30185;SDS011;31152;49.190;8.122;2022-09-12T16:06:52;2.50;;;2.00;;
30185;SDS011;31152;49.190;8.122;2022-09-12T16:09:20;3.20;;;2.03;;
30185;SDS011;31152;49.190;8.122;2022-09-12T16:11:51;3.00;;;2.10;;
30185;SDS011;31152;49.190;8.122;2022-09-12T16:14:18;3.17;;;1.92;;
30185;SDS011;31152;49.190;8.122;2022-09-12T16:16:50;3.42;;;1.90;;
30185;SDS011;31152;49.190;8.122;2022-09-12T16:19:18;4.03;;;1.75;;
30185;SDS011;31152;49.190;8.122;2022-09-12T16:21:45;2.20;;;1.98;;
30185;SDS011;31152;49.190;8.122;2022-09-12T16:24:12;5.20;;;1.90;;
30185;SDS011;31152;49.190;8.122;2022-09-12T16:26:39;3.35;;;1.95;;
30185;SDS011;31152;49.190;8.122;2022-09-12T16:29:07;2.00;;;1.75;;
30185;SDS011;31152;49.190;8.122;2022-09-12T16:31:39;5.78;;;2.80;;
30185;SDS011;31152;49.190;8.122;2022-09-12T16:34:06;2.90;;;1.92;;
30185;SDS011;31152;49.190;8.122;2022-09-12T16:36:33;3.17;;;1.95;;
30185;SDS011;31152;49.190;8.122;2022-09-12T16:38:59;4.53;;;2.20;;
30185;SDS011;31152;49.190;8.122;2022-09-12T16:41:28;3.58;;;2.10;;
30185;SDS011;31152;49.190;8.122;2022-09-12T16:43:57;2.22;;;2.03;;
30185;SDS011;31152;49.190;8.122;2022-09-12T16:46:25;2.90;;;2.10;;
30185;SDS011;31152;49.190;8.122;2022-09-12T16:48:56;3.90;;;1.88;;
30185;SDS011;31152;49.190;8.122;2022-09-12T16:51:29;2.50;;;2.30;;
30185;SDS011;31152;49.190;8.122;2022-09-12T16:53:57;2.80;;;2.05;;
30185;SDS011;31152;49.190;8.122;2022-09-12T16:56:26;7.70;;;2.50;;
30185;SDS011;31152;49.190;8.122;2022-09-12T16:58:53;4.25;;;2.00;;
30185;SDS011;31152;49.190;8.122;2022-09-12T17:01:21;2.30;;;2.10;;
30185;SDS011;31152;49.190;8.122;2022-09-12T17:03:55;2.70;;;2.15;;
30185;SDS011;31152;49.190;8.122;2022-09-12T17:06:24;2.35;;;1.92;;
30185;SDS011;31152;49.190;8.122;2022-09-12T17:08:57;5.03;;;1.90;;
30185;SDS011;31152;49.190;8.122;2022-09-12T17:11:29;3.03;;;2.30;;
30185;SDS011;31152;49.190;8.122;2022-09-12T17:13:58;4.60;;;2.25;;
30185;SDS011;31152;49.190;8.122;2022-09-12T17:16:35;2.45;;;1.88;;
30185;SDS011;31152;49.190;8.122;2022-09-12T17:19:17;7.90;;;2.47;;
30185;SDS011;31152;49.190;8.122;2022-09-12T17:21:51;9.52;;;2.20;;
30185;SDS011;31152;49.190;8.122;2022-09-12T17:24:19;5.25;;;2.70;;
30185;SDS011;31152;49.190;8.122;2022-09-12T17:26:46;3.92;;;2.17;;
30185;SDS011;31152;49.190;8.122;2022-09-12T17:29:13;4.70;;;2.17;;
30185;SDS011;31152;49.190;8.122;2022-09-12T17:31:43;6.43;;;2.78;;
30185;SDS011;31152;49.190;8.122;2022-09-12T17:34:10;7.57;;;2.30;;
30185;SDS011;31152;49.190;8.122;2022-09-12T17:36:41;6.57;;;2.70;;
30185;SDS011;31152;49.190;8.122;2022-09-12T17:39:13;3.47;;;2.63;;
30185;SDS011;31152;49.190;8.122;2022-09-12T17:41:40;5.93;;;2.80;;
30185;SDS011;31152;49.190;8.122;2022-09-12T17:44:09;13.15;;;3.20;;